createdAt,value
2019-05-17T00:00:16.668Z,21.73
2019-05-17T00:03:02.567Z,21.50
2019-05-17T00:05:48.852Z,22.47
2019-05-17T00:08:38.072Z,21.30
2019-05-17T00:11:22.706Z,22.83
2019-05-17T00:14:09.072Z,21.50
2019-05-17T00:16:57.098Z,21.73
2019-05-17T00:19:42.839Z,22.17
2019-05-17T00:22:29.073Z,20.60
2019-05-17T00:25:16.748Z,21.77
2019-05-17T00:28:03.017Z,22.23
2019-05-17T00:30:49.251Z,20.40
2019-05-17T00:33:36.699Z,20.30
2019-05-17T00:36:23.217Z,21.30
2019-05-17T00:39:09.192Z,21.00
2019-05-17T00:41:57.288Z,20.70
2019-05-17T00:44:43.642Z,19.60
2019-05-17T00:47:29.961Z,19.83
2019-05-17T00:50:17.049Z,20.27
2019-05-17T00:53:03.807Z,21.30
2019-05-17T00:55:50.021Z,20.53
2019-05-17T00:58:37.077Z,20.87
2019-05-17T01:01:23.781Z,20.40
2019-05-17T01:04:10.196Z,19.53
2019-05-17T01:06:56.419Z,21.17
2019-05-17T01:09:42.277Z,19.80
2019-05-17T01:12:28.532Z,20.13
2019-05-17T01:15:16.862Z,20.43
2019-05-17T01:18:03.421Z,18.87
2019-05-17T01:20:49.757Z,18.83
2019-05-17T01:23:36.350Z,19.27
2019-05-17T01:26:22.497Z,19.27
2019-05-17T01:29:08.677Z,22.27
2019-05-17T01:31:57.036Z,21.80
2019-05-17T01:34:42.992Z,21.13
2019-05-17T01:37:29.366Z,19.30
2019-05-17T01:40:17.548Z,20.47
2019-05-17T01:43:03.776Z,20.67
2019-05-17T01:45:50.116Z,19.13
2019-05-17T01:48:36.684Z,21.50
2019-05-17T01:51:22.971Z,19.83
2019-05-17T01:54:09.361Z,20.63
2019-05-17T01:56:56.662Z,19.30
2019-05-17T01:59:43.072Z,19.73
2019-05-17T02:02:36.515Z,18.77
2019-05-17T02:05:22.601Z,18.43
2019-05-17T02:08:08.676Z,18.43
2019-05-17T02:10:57.218Z,17.87
2019-05-17T02:13:43.032Z,18.27
2019-05-17T02:16:29.111Z,18.00
2019-05-17T02:19:17.280Z,18.57
2019-05-17T02:22:02.824Z,18.93
2019-05-17T02:24:48.958Z,18.07
2019-05-17T02:27:40.899Z,16.77
2019-05-17T02:30:23.722Z,17.87
2019-05-17T02:33:12.645Z,17.40
2019-05-17T02:35:57.929Z,18.77
2019-05-17T02:38:43.958Z,17.90
2019-05-17T02:41:33.046Z,18.57
2019-05-17T02:44:18.282Z,19.53
2019-05-17T02:47:04.561Z,19.67
2019-05-17T02:49:52.559Z,19.80
2019-05-17T02:52:38.615Z,18.40
2019-05-17T02:55:24.829Z,17.43
2019-05-17T02:58:12.806Z,20.43
2019-05-17T03:00:59.166Z,19.17
2019-05-17T03:03:45.392Z,18.53
2019-05-17T03:06:32.878Z,17.63
2019-05-17T03:09:18.952Z,19.50
2019-05-17T03:12:05.194Z,19.07
2019-05-17T03:14:52.884Z,18.73
2019-05-17T03:17:42.934Z,17.40
2019-05-17T03:20:27.493Z,18.50
2019-05-17T03:23:13.744Z,17.50
2019-05-17T03:26:03.172Z,19.07
2019-05-17T03:28:47.924Z,18.10
2019-05-17T03:31:42.343Z,19.13
2019-05-17T03:34:26.267Z,18.40
2019-05-17T03:37:15.596Z,17.17
2019-05-17T03:39:58.551Z,18.33
2019-05-17T03:42:45.119Z,17.50
2019-05-17T03:45:34.000Z,17.50
2019-05-17T03:48:22.166Z,17.60
2019-05-17T03:51:08.284Z,17.00
2019-05-17T03:53:54.384Z,17.47
2019-05-17T03:56:42.747Z,17.27
2019-05-17T03:59:28.296Z,16.47
2019-05-17T04:02:14.661Z,16.67
2019-05-17T04:05:03.927Z,15.43
2019-05-17T04:07:48.975Z,16.70
2019-05-17T04:10:35.111Z,16.53
2019-05-17T04:13:23.534Z,17.53
2019-05-17T04:16:13.558Z,15.57
2019-05-17T04:18:57.910Z,16.17
2019-05-17T04:21:43.936Z,15.13
2019-05-17T04:24:32.483Z,16.33
2019-05-17T04:27:18.499Z,14.63
2019-05-17T04:30:04.732Z,15.27
2019-05-17T04:32:52.630Z,15.93
2019-05-17T04:35:39.072Z,15.13
2019-05-17T04:38:25.171Z,15.90
2019-05-17T04:41:13.290Z,15.73
2019-05-17T04:44:02.409Z,14.90
2019-05-17T04:46:47.918Z,15.47
2019-05-17T04:49:33.937Z,13.97
2019-05-17T04:52:22.811Z,14.03
2019-05-17T04:55:08.532Z,14.33
2019-05-17T04:57:55.122Z,14.63
2019-05-17T05:00:43.107Z,14.63
2019-05-17T05:03:32.414Z,14.13
2019-05-17T05:06:17.172Z,13.17
2019-05-17T05:09:05.590Z,13.83
2019-05-17T05:12:00.401Z,14.00
2019-05-17T05:14:39.807Z,13.20
2019-05-17T05:17:25.887Z,14.20
2019-05-17T05:20:13.098Z,12.73
2019-05-17T05:23:02.686Z,14.10
2019-05-17T05:25:48.327Z,14.33
2019-05-17T05:28:34.560Z,14.77
2019-05-17T05:31:22.636Z,13.83
2019-05-17T05:34:08.852Z,14.97
2019-05-17T05:36:55.247Z,16.13
2019-05-17T05:39:41.502Z,14.93
2019-05-17T05:42:27.792Z,15.90
2019-05-17T05:45:13.927Z,15.47
2019-05-17T05:48:01.877Z,16.10
2019-05-17T05:50:48.142Z,15.37
2019-05-17T05:53:34.366Z,15.83
2019-05-17T05:56:21.965Z,15.57
2019-05-17T05:59:08.229Z,16.47
2019-05-17T06:01:54.327Z,14.70
2019-05-17T06:04:42.375Z,14.60
2019-05-17T06:07:28.799Z,13.93
2019-05-17T06:10:16.577Z,13.20
2019-05-17T06:13:03.314Z,13.57
2019-05-17T06:15:51.627Z,13.77
2019-05-17T06:18:37.602Z,12.70
2019-05-17T06:21:23.672Z,12.67
2019-05-17T06:24:11.907Z,11.77
2019-05-17T06:26:58.106Z,10.73
2019-05-17T06:29:44.346Z,10.03
2019-05-17T06:32:31.668Z,9.40
2019-05-17T06:35:18.327Z,10.10
2019-05-17T06:38:04.611Z,10.43
2019-05-17T06:40:52.360Z,10.03
2019-05-17T06:43:38.715Z,9.50
2019-05-17T06:46:24.711Z,9.93
2019-05-17T06:49:11.753Z,10.90
2019-05-17T06:51:58.056Z,10.23
2019-05-17T06:54:44.272Z,10.87
2019-05-17T06:57:32.573Z,10.80
2019-05-17T07:00:23.500Z,10.30
2019-05-17T07:03:09.400Z,10.93
2019-05-17T07:05:56.981Z,10.57
2019-05-17T07:08:43.312Z,11.03
2019-05-17T07:11:30.368Z,10.37
2019-05-17T07:14:16.746Z,11.07
2019-05-17T07:17:03.019Z,11.53
2019-05-17T07:19:50.747Z,10.77
2019-05-17T07:22:40.457Z,10.07
2019-05-17T07:25:25.627Z,11.17
2019-05-17T07:28:11.677Z,10.33
2019-05-17T07:30:59.622Z,10.73
2019-05-17T07:33:45.911Z,11.20
2019-05-17T07:36:32.946Z,10.37
2019-05-17T07:39:20.438Z,10.77
2019-05-17T07:42:06.587Z,11.83
2019-05-17T07:44:52.781Z,11.83
2019-05-17T07:47:40.477Z,11.53
2019-05-17T07:50:29.198Z,11.87
2019-05-17T07:53:15.331Z,10.67
2019-05-17T07:56:01.439Z,12.90
2019-05-17T07:58:49.502Z,11.60
2019-05-17T08:01:35.791Z,12.10
2019-05-17T08:04:21.951Z,10.93
2019-05-17T08:07:10.845Z,11.60
2019-05-17T08:09:56.595Z,12.37
2019-05-17T08:12:50.623Z,12.37
2019-05-17T08:15:40.572Z,12.40
2019-05-17T08:18:29.462Z,12.93
2019-05-17T08:21:16.771Z,13.03
2019-05-17T08:24:03.097Z,11.77
2019-05-17T08:26:51.217Z,10.67
2019-05-17T08:29:37.388Z,11.13
2019-05-17T08:32:23.528Z,11.70
2019-05-17T08:35:11.231Z,11.87
2019-05-17T08:38:00.354Z,11.07
2019-05-17T08:40:45.735Z,11.47
2019-05-17T08:43:42.516Z,11.47
2019-05-17T08:46:20.221Z,11.43
2019-05-17T08:49:06.253Z,11.40
2019-05-17T08:51:52.307Z,10.90
2019-05-17T08:54:42.648Z,11.60
2019-05-17T08:57:26.355Z,12.30
2019-05-17T09:00:12.750Z,11.47
2019-05-17T09:03:00.071Z,11.97
2019-05-17T09:05:46.429Z,12.07
2019-05-17T09:08:32.686Z,12.10
2019-05-17T09:11:19.695Z,12.17
2019-05-17T09:14:06.027Z,11.60
2019-05-17T09:16:52.711Z,12.73
2019-05-17T09:19:39.489Z,11.43
2019-05-17T09:22:26.162Z,13.33
2019-05-17T09:25:18.467Z,11.30
2019-05-17T09:28:00.785Z,12.30
2019-05-17T09:30:46.892Z,11.83
2019-05-17T09:33:33.070Z,12.00
2019-05-17T09:36:20.457Z,12.60
2019-05-17T09:39:09.461Z,12.30
2019-05-17T09:41:56.256Z,12.90
2019-05-17T09:44:49.671Z,12.93
2019-05-17T09:47:36.344Z,13.00
2019-05-17T09:50:22.417Z,13.50
2019-05-17T09:53:10.821Z,14.00
2019-05-17T09:55:56.927Z,13.30
2019-05-17T09:58:43.356Z,14.30
2019-05-17T10:01:30.342Z,13.97
2019-05-17T10:04:16.956Z,12.77
2019-05-17T10:07:03.206Z,13.13
2019-05-17T10:09:50.314Z,13.37
2019-05-17T10:12:36.755Z,10.87
2019-05-17T10:15:25.163Z,13.30
2019-05-17T10:18:11.590Z,13.30
2019-05-17T10:21:05.302Z,12.57
2019-05-17T10:23:51.619Z,12.97
2019-05-17T10:26:37.671Z,11.90
2019-05-17T10:29:23.487Z,11.03
2019-05-17T10:32:10.459Z,12.40
2019-05-17T10:35:02.477Z,11.17
2019-05-17T10:37:52.068Z,11.87
2019-05-17T10:41:10.104Z,12.63
2019-05-17T10:43:59.439Z,12.70
2019-05-17T10:46:45.800Z,12.30
2019-05-17T10:49:34.168Z,11.43
2019-05-17T10:52:29.973Z,11.87
2019-05-17T10:55:20.006Z,11.17
2019-05-17T10:58:10.022Z,11.37
2019-05-17T11:04:16.106Z,10.93
2019-05-17T11:07:02.431Z,10.40
2019-05-17T11:09:50.910Z,11.73
2019-05-17T11:12:45.565Z,11.47
2019-05-17T11:15:31.842Z,10.80
2019-05-17T11:18:19.473Z,10.23
2019-05-17T11:21:08.614Z,10.50
2019-05-17T11:24:05.757Z,9.77
2019-05-17T11:26:51.996Z,11.07
2019-05-17T11:29:46.977Z,10.97
2019-05-17T11:32:33.342Z,11.67
2019-05-17T11:35:27.467Z,10.97
2019-05-17T11:47:19.326Z,11.97
2019-05-17T11:51:05.517Z,12.73
2019-05-17T11:58:48.316Z,11.77
2019-05-17T12:01:36.416Z,11.60
2019-05-17T12:04:56.897Z,11.77
2019-05-17T12:07:44.452Z,12.47
2019-05-17T12:10:31.143Z,10.67
2019-05-17T12:13:19.030Z,8.60
2019-05-17T12:16:06.190Z,9.40
2019-05-17T12:18:57.582Z,8.97
2019-05-17T12:21:44.231Z,8.60
2019-05-17T12:24:31.438Z,10.00
2019-05-17T12:27:17.669Z,8.73
2019-05-17T12:30:04.752Z,8.40
2019-05-17T12:32:50.601Z,7.70
2019-05-17T12:35:36.796Z,8.20
2019-05-17T12:38:22.991Z,8.70
2019-05-17T12:41:14.507Z,8.00
2019-05-17T12:44:01.744Z,7.90
2019-05-17T12:46:48.885Z,7.37
2019-05-17T12:49:34.976Z,7.77
2019-05-17T12:52:27.137Z,8.30
2019-05-17T12:55:13.513Z,8.07
2019-05-17T12:57:59.617Z,8.47
2019-05-17T13:00:45.846Z,9.17
2019-05-17T13:03:36.912Z,10.40
2019-05-17T13:06:26.478Z,9.63
2019-05-17T13:09:30.105Z,9.23
2019-05-17T13:12:58.877Z,11.07
2019-05-17T13:15:54.105Z,9.87
2019-05-17T13:18:49.947Z,11.63
2019-05-17T13:21:39.433Z,11.53
2019-05-17T13:24:27.871Z,12.00
2019-05-17T13:27:17.847Z,11.73
2019-05-17T13:30:08.864Z,9.47
2019-05-17T13:32:58.132Z,11.07
2019-05-17T13:35:45.507Z,9.27
2019-05-17T13:38:32.131Z,11.40
2019-05-17T13:41:22.428Z,10.00
2019-05-17T13:44:14.501Z,9.53
2019-05-17T13:47:01.543Z,10.43
2019-05-17T13:49:50.029Z,10.63
2019-05-17T13:52:38.509Z,9.77
2019-05-17T13:55:24.533Z,8.77
2019-05-17T13:58:12.513Z,10.07
2019-05-17T14:00:59.157Z,10.63
2019-05-17T14:03:46.522Z,10.97
2019-05-17T14:06:40.031Z,10.90
2019-05-17T14:09:26.537Z,10.87
2019-05-17T14:12:12.817Z,11.47
2019-05-17T14:14:59.622Z,12.30
2019-05-17T14:17:47.678Z,12.03
2019-05-17T14:20:34.596Z,12.20
2019-05-17T14:23:20.767Z,11.47
2019-05-17T14:26:10.688Z,12.43
2019-05-17T14:28:57.151Z,10.67
2019-05-17T14:31:44.909Z,10.40
2019-05-17T14:34:31.195Z,11.27
2019-05-17T14:37:17.694Z,11.47
2019-05-17T14:40:04.552Z,10.70
2019-05-17T14:42:50.925Z,9.13
2019-05-17T14:45:37.215Z,9.47
2019-05-17T14:48:23.266Z,9.67
2019-05-17T14:51:09.599Z,9.60
2019-05-17T14:53:55.554Z,9.00
2019-05-17T14:56:41.919Z,9.80
2019-05-17T14:59:28.044Z,9.37
2019-05-17T15:02:18.307Z,9.77
2019-05-17T15:05:11.713Z,8.63
2019-05-17T15:07:58.037Z,10.50
2019-05-17T15:10:44.199Z,9.53
2019-05-17T15:13:30.317Z,10.00
2019-05-17T15:16:19.252Z,9.73
2019-05-17T15:19:05.147Z,10.10
2019-05-17T15:21:51.443Z,8.97
2019-05-17T15:24:41.481Z,9.03
2019-05-17T15:27:29.056Z,10.07
2019-05-17T15:30:15.302Z,9.10
2019-05-17T15:33:01.199Z,8.80
2019-05-17T15:35:47.327Z,9.27
2019-05-17T15:38:33.536Z,9.10
2019-05-17T15:41:19.422Z,8.60
2019-05-17T15:44:05.852Z,8.47
2019-05-17T15:46:52.347Z,8.57
2019-05-17T15:49:38.709Z,8.97
2019-05-17T15:52:24.943Z,8.90
2019-05-17T15:55:11.471Z,8.40
2019-05-17T15:57:57.862Z,9.40
2019-05-17T16:00:44.079Z,8.70
2019-05-17T16:03:30.212Z,9.13
2019-05-17T16:06:16.128Z,9.37
2019-05-17T16:09:03.945Z,8.90
2019-05-17T16:11:49.810Z,8.70
2019-05-17T16:14:36.132Z,8.60
2019-05-17T16:17:22.430Z,8.57
2019-05-17T16:20:10.436Z,8.40
2019-05-17T16:22:56.742Z,8.70
2019-05-17T16:25:42.795Z,7.17
2019-05-17T16:28:28.897Z,7.47
2019-05-17T16:31:14.972Z,8.33
2019-05-17T16:34:01.283Z,8.00
2019-05-17T16:36:47.361Z,8.20
2019-05-17T16:39:33.587Z,8.40
2019-05-17T16:42:19.831Z,8.67
2019-05-17T16:45:08.012Z,8.73
2019-05-17T16:47:54.166Z,9.53
2019-05-17T16:50:40.568Z,10.30
2019-05-17T16:53:26.840Z,10.20
2019-05-17T16:56:13.026Z,10.40
2019-05-17T16:58:59.301Z,10.13
2019-05-17T17:01:45.311Z,10.77
2019-05-17T17:04:31.588Z,10.50
2019-05-17T17:07:17.915Z,10.53
2019-05-17T17:10:03.981Z,11.33
2019-05-17T17:12:50.069Z,10.93
2019-05-17T17:15:36.184Z,11.13
2019-05-17T17:18:22.308Z,11.27
2019-05-17T17:21:08.553Z,11.00
2019-05-17T17:23:54.723Z,11.03
2019-05-17T17:26:40.912Z,11.97
2019-05-17T17:29:30.644Z,11.27
2019-05-17T17:32:21.494Z,11.00
2019-05-17T17:35:05.992Z,10.90
2019-05-17T17:37:52.143Z,10.37
2019-05-17T17:40:41.204Z,11.50
2019-05-17T17:43:30.381Z,10.17
2019-05-17T17:46:16.886Z,9.97
2019-05-17T17:49:03.180Z,10.53
2019-05-17T17:51:52.404Z,10.53
2019-05-17T17:54:38.536Z,10.90
2019-05-17T17:57:24.750Z,10.27
2019-05-17T18:00:16.823Z,11.23
2019-05-17T18:03:06.556Z,10.20
2019-05-17T18:05:54.131Z,10.43
2019-05-17T18:08:45.156Z,11.57
2019-05-17T18:11:30.966Z,11.27
2019-05-17T18:14:17.281Z,11.57
2019-05-17T18:17:08.130Z,12.20
2019-05-17T18:19:57.731Z,11.23
2019-05-17T18:22:46.762Z,13.47
2019-05-17T18:25:33.181Z,12.63
2019-05-17T18:28:20.351Z,12.57
2019-05-17T18:31:06.975Z,13.73
2019-05-17T18:34:01.273Z,12.37
2019-05-17T18:36:48.243Z,12.43
2019-05-17T18:39:34.784Z,12.17
2019-05-17T18:42:21.396Z,12.83
2019-05-17T18:45:08.086Z,13.07
2019-05-17T18:47:54.105Z,13.03
2019-05-17T18:50:40.298Z,13.53
2019-05-17T18:53:26.211Z,12.77
2019-05-17T18:56:12.451Z,13.27
2019-05-17T18:58:58.507Z,12.73
2019-05-17T19:01:44.781Z,13.30
2019-05-17T19:04:31.092Z,13.83
2019-05-17T19:07:17.311Z,12.60
2019-05-17T19:10:03.967Z,13.27
2019-05-17T19:12:50.352Z,13.47
2019-05-17T19:15:36.371Z,15.17
2019-05-17T19:18:22.426Z,13.67
2019-05-17T19:21:08.560Z,13.90
2019-05-17T19:23:54.696Z,12.87
2019-05-17T19:26:40.891Z,13.57
2019-05-17T19:29:27.061Z,14.07
2019-05-17T19:32:13.128Z,13.27
2019-05-17T19:34:59.526Z,14.73
2019-05-17T19:37:45.515Z,13.30
2019-05-17T19:40:31.699Z,13.00
2019-05-17T19:43:17.977Z,13.63
2019-05-17T19:46:04.286Z,12.63
2019-05-17T19:48:50.449Z,13.83
2019-05-17T19:51:37.745Z,14.10
2019-05-17T19:54:23.859Z,14.87
2019-05-17T19:57:10.071Z,14.50
2019-05-17T19:59:56.077Z,14.07
2019-05-17T20:02:42.306Z,13.73
2019-05-17T20:05:28.548Z,14.47
2019-05-17T20:08:14.567Z,14.83
2019-05-17T20:11:02.996Z,14.97
2019-05-17T20:13:49.299Z,15.83
2019-05-17T20:16:35.482Z,14.23
2019-05-17T20:19:21.501Z,14.70
2019-05-17T20:22:07.817Z,13.67
2019-05-17T20:24:53.876Z,14.63
2019-05-17T20:27:39.945Z,15.60
2019-05-17T20:30:26.201Z,15.57
2019-05-17T20:33:12.620Z,15.20
2019-05-17T20:35:58.640Z,16.57
2019-05-17T20:38:44.909Z,17.67
2019-05-17T20:41:35.551Z,16.63
2019-05-17T20:44:21.877Z,16.80
2019-05-17T20:47:10.118Z,17.10
2019-05-17T20:49:59.251Z,14.73
2019-05-17T20:52:45.461Z,16.33
2019-05-17T20:55:31.507Z,16.37
2019-05-17T20:58:17.822Z,15.53
2019-05-17T21:01:04.213Z,16.07
2019-05-17T21:03:55.015Z,14.53
2019-05-17T21:06:41.458Z,14.73
2019-05-17T21:09:29.101Z,15.30
2019-05-17T21:12:15.865Z,15.17
2019-05-17T21:15:03.042Z,16.43
2019-05-17T21:17:49.605Z,14.07
2019-05-17T21:20:38.815Z,15.00
2019-05-17T21:23:25.401Z,15.90
2019-05-17T21:26:12.076Z,14.37
2019-05-17T21:28:58.305Z,14.63
2019-05-17T21:31:44.456Z,14.77
2019-05-17T21:34:32.568Z,14.97
2019-05-17T21:37:18.460Z,16.00
2019-05-17T21:40:05.382Z,15.60
2019-05-17T21:42:51.324Z,15.63
2019-05-17T21:45:37.475Z,15.73
2019-05-17T21:48:23.736Z,16.40
2019-05-17T21:51:10.051Z,15.47
2019-05-17T21:53:56.262Z,16.37
2019-05-17T21:56:42.445Z,16.90
2019-05-17T21:59:28.865Z,17.00
2019-05-17T22:02:14.877Z,17.10
2019-05-17T22:05:01.172Z,15.73
2019-05-17T22:07:47.324Z,17.50
2019-05-17T22:10:33.385Z,15.97
2019-05-17T22:13:19.501Z,16.77
2019-05-17T22:16:18.478Z,17.07
2019-05-17T22:18:53.856Z,15.33
2019-05-17T22:21:40.106Z,15.57
2019-05-17T22:24:26.281Z,16.07
2019-05-17T22:27:12.224Z,15.53
2019-05-17T22:29:58.500Z,16.57
2019-05-17T22:32:44.645Z,16.60
2019-05-17T22:35:30.656Z,16.50
2019-05-17T22:38:16.889Z,16.70
2019-05-17T22:41:05.889Z,16.33
2019-05-17T22:43:52.235Z,16.33
2019-05-17T22:46:41.631Z,16.50
2019-05-17T22:49:27.603Z,16.87
2019-05-17T22:52:13.701Z,17.27
2019-05-17T22:55:00.006Z,16.47
2019-05-17T22:57:45.985Z,17.17
2019-05-17T23:00:32.374Z,16.30
2019-05-17T23:03:18.475Z,15.37
2019-05-17T23:06:04.820Z,17.27
2019-05-17T23:08:51.361Z,15.87
2019-05-17T23:11:37.502Z,14.93
2019-05-17T23:14:23.581Z,16.33
2019-05-17T23:17:09.670Z,16.50
2019-05-17T23:19:55.872Z,16.10
2019-05-17T23:22:41.947Z,15.07
2019-05-17T23:25:28.338Z,15.10
2019-05-17T23:28:14.596Z,15.70
2019-05-17T23:31:00.785Z,15.23
2019-05-17T23:33:51.046Z,14.13
2019-05-17T23:36:39.351Z,14.73
2019-05-17T23:39:25.445Z,14.37
2019-05-17T23:42:11.535Z,15.47
2019-05-17T23:44:57.901Z,16.27
2019-05-17T23:47:46.005Z,16.70
2019-05-17T23:50:32.271Z,15.10
2019-05-17T23:53:20.381Z,15.93
2019-05-17T23:56:11.970Z,15.30
2019-05-17T23:59:05.417Z,15.63
